createdAt,value
2023-06-08T00:02:15.750Z,26.33
2023-06-08T00:04:43.144Z,20.63
2023-06-08T00:07:10.025Z,20.97
2023-06-08T00:09:39.398Z,25.27
2023-06-08T00:12:12.619Z,24.37
2023-06-08T00:14:42.337Z,22.83
2023-06-08T00:17:12.065Z,25.33
2023-06-08T00:19:43.556Z,18.77
2023-06-08T00:22:14.216Z,24.47
2023-06-08T00:24:50.048Z,18.70
2023-06-08T00:27:16.810Z,24.90
2023-06-08T00:29:43.705Z,23.40
2023-06-08T00:32:10.530Z,22.17
2023-06-08T00:34:39.878Z,35.03
2023-06-08T00:37:11.471Z,21.83
2023-06-08T00:39:40.719Z,28.03
2023-06-08T00:42:11.658Z,27.83
2023-06-08T00:44:41.525Z,20.60
2023-06-08T00:47:11.271Z,25.90
2023-06-08T00:49:46.281Z,22.23
2023-06-08T00:52:14.497Z,19.93
2023-06-08T00:54:41.236Z,31.63
2023-06-08T00:57:11.373Z,27.57
2023-06-08T00:59:41.325Z,31.20
2023-06-08T01:02:09.312Z,28.93
2023-06-08T01:04:37.301Z,30.70
2023-06-08T01:07:26.478Z,28.43
2023-06-08T01:09:57.288Z,28.67
2023-06-08T01:12:34.830Z,31.10
2023-06-08T01:15:10.539Z,25.57
2023-06-08T01:17:43.574Z,25.10
2023-06-08T01:20:16.692Z,31.53
2023-06-08T01:22:58.679Z,27.00
2023-06-08T01:25:30.691Z,24.07
2023-06-08T01:28:13.618Z,26.80
2023-06-08T01:30:42.008Z,24.40
2023-06-08T01:33:12.284Z,25.57
2023-06-08T01:35:39.096Z,25.00
2023-06-08T01:38:22.523Z,30.23
2023-06-08T01:40:56.429Z,30.80
2023-06-08T01:43:24.828Z,30.43
2023-06-08T01:45:53.192Z,25.67
2023-06-08T01:48:31.302Z,32.23
2023-06-08T01:50:59.202Z,34.43
2023-06-08T01:53:25.956Z,24.60
2023-06-08T01:56:01.553Z,26.23
2023-06-08T01:58:28.237Z,33.37
2023-06-08T02:00:54.982Z,28.17
2023-06-08T02:03:21.801Z,25.07
2023-06-08T02:05:48.479Z,26.20
2023-06-08T02:08:15.108Z,31.10
2023-06-08T02:10:41.707Z,26.97
2023-06-08T02:13:08.516Z,33.57
2023-06-08T02:15:35.508Z,30.83
2023-06-08T02:18:02.750Z,31.27
2023-06-08T02:20:34.698Z,32.20
2023-06-08T02:23:01.571Z,29.97
2023-06-08T02:25:28.533Z,29.37
2023-06-08T02:28:07.810Z,36.03
2023-06-08T02:30:34.585Z,28.27
2023-06-08T02:33:01.524Z,35.30
2023-06-08T02:35:42.184Z,29.03
2023-06-08T02:38:08.970Z,38.53
2023-06-08T02:40:36.818Z,34.27
2023-06-08T02:43:03.685Z,36.80
2023-06-08T02:45:31.596Z,32.27
2023-06-08T02:47:59.752Z,40.03
2023-06-08T02:50:26.470Z,32.23
2023-06-08T02:52:53.144Z,29.70
2023-06-08T02:55:19.860Z,43.10
2023-06-08T02:57:50.203Z,30.87
2023-06-08T03:00:17.907Z,33.77
2023-06-08T03:03:07.619Z,29.90
2023-06-08T03:05:40.283Z,30.97
2023-06-08T03:08:08.282Z,36.53
2023-06-08T03:10:35.665Z,27.47
2023-06-08T03:13:07.917Z,36.67
2023-06-08T03:15:34.539Z,36.07
2023-06-08T03:18:02.828Z,34.00
2023-06-08T03:20:52.945Z,30.27
2023-06-08T03:23:37.525Z,34.17
2023-06-08T03:26:26.217Z,40.33
2023-06-08T03:28:59.253Z,40.40
2023-06-08T03:34:43.417Z,29.47
2023-06-08T03:37:15.944Z,35.43
2023-06-08T03:46:25.315Z,32.20
2023-06-08T03:48:28.041Z,38.77
2023-06-08T03:51:05.026Z,36.93
2023-06-08T03:53:51.920Z,35.50
2023-06-08T03:56:27.225Z,28.60
2023-06-08T03:59:27.262Z,36.50
2023-06-08T04:01:58.460Z,24.83
2023-06-08T04:04:31.894Z,33.97
2023-06-08T04:07:26.293Z,31.23
2023-06-08T04:10:04.660Z,30.53
2023-06-08T04:16:09.860Z,34.23
2023-06-08T04:21:34.870Z,38.17
2023-06-08T04:27:23.899Z,30.50
2023-06-08T04:30:24.668Z,28.63
2023-06-08T04:33:23.362Z,26.70
2023-06-08T04:35:54.579Z,26.07
2023-06-08T04:41:36.246Z,35.87
2023-06-08T04:46:54.615Z,30.03
2023-06-08T04:53:11.748Z,28.37
2023-06-08T04:56:11.498Z,34.30
2023-06-08T04:59:07.961Z,37.73
2023-06-08T05:01:51.611Z,45.00
2023-06-08T05:04:26.156Z,37.60
2023-06-08T05:07:36.569Z,27.20
2023-06-08T05:10:07.221Z,37.97
2023-06-08T05:12:48.682Z,34.90
2023-06-08T05:15:45.570Z,30.60
2023-06-08T05:18:37.097Z,35.03
2023-06-08T05:21:26.353Z,34.53
2023-06-08T05:24:12.537Z,41.40
2023-06-08T05:26:41.807Z,30.00
2023-06-08T05:29:13.967Z,30.00
2023-06-08T05:32:15.130Z,34.10
2023-06-08T05:37:31.648Z,29.30
2023-06-08T05:38:01.864Z,33.40
2023-06-08T05:40:35.511Z,24.30
2023-06-08T05:43:16.637Z,35.53
2023-06-08T05:46:26.009Z,35.30
2023-06-08T05:49:01.886Z,34.07
2023-06-08T05:51:28.849Z,38.10
2023-06-08T05:53:55.636Z,39.63
2023-06-08T05:56:22.510Z,38.23
2023-06-08T05:58:50.273Z,34.80
2023-06-08T06:01:21.111Z,35.57
2023-06-08T06:03:49.517Z,35.90
2023-06-08T06:06:17.996Z,29.67
2023-06-08T06:08:48.211Z,33.03
2023-06-08T06:11:16.146Z,33.50
2023-06-08T06:13:50.948Z,32.93
2023-06-08T06:16:19.248Z,36.93
2023-06-08T06:18:49.825Z,29.17
2023-06-08T06:51:49.807Z,34.27
2023-06-08T06:54:18.583Z,30.53
2023-06-08T06:56:47.402Z,31.17
2023-06-08T06:59:16.214Z,33.70
2023-06-08T07:01:44.441Z,29.83
2023-06-08T07:04:13.208Z,34.50
2023-06-08T07:06:43.357Z,33.80
2023-06-08T07:09:12.123Z,36.07
2023-06-08T07:17:23.419Z,33.17
2023-06-08T07:23:39.912Z,33.87
2023-06-08T07:26:29.455Z,34.80
2023-06-08T07:28:57.108Z,36.87
2023-06-08T07:31:33.317Z,31.70
2023-06-08T07:34:00.207Z,34.90
2023-06-08T07:36:29.743Z,29.63
2023-06-08T07:39:00.658Z,30.47
2023-06-08T07:41:28.742Z,35.17
2023-06-08T07:43:56.873Z,33.73
2023-06-08T07:46:24.478Z,37.20
2023-06-08T07:48:51.262Z,33.20
2023-06-08T07:51:20.527Z,40.20
2023-06-08T07:53:47.243Z,29.40
2023-06-08T07:56:19.297Z,31.10
2023-06-08T07:58:49.474Z,29.30
2023-06-08T08:01:17.805Z,28.13
2023-06-08T08:03:46.818Z,26.30
2023-06-08T08:06:14.414Z,27.80
2023-06-08T08:08:41.565Z,31.90
2023-06-08T08:11:09.793Z,32.80
2023-06-08T08:13:37.013Z,33.57
2023-06-08T08:16:03.952Z,32.40
2023-06-08T08:18:38.506Z,27.87
2023-06-08T08:21:05.930Z,28.20
2023-06-08T08:23:38.058Z,29.50
2023-06-08T08:26:07.722Z,28.70
2023-06-08T08:28:38.908Z,29.40
2023-06-08T08:31:06.056Z,28.07
2023-06-08T08:33:40.860Z,32.37
2023-06-08T08:36:10.117Z,29.50
2023-06-08T08:38:41.714Z,30.60
2023-06-08T08:41:32.634Z,27.50
2023-06-08T08:44:10.955Z,29.83
2023-06-08T08:46:40.840Z,27.10
2023-06-08T08:49:15.150Z,27.70
2023-06-08T08:51:55.956Z,30.17
2023-06-08T08:54:33.085Z,31.30
2023-06-08T08:57:00.084Z,36.03
2023-06-08T08:59:47.700Z,30.60
2023-06-08T09:02:24.277Z,26.70
2023-06-08T09:04:57.373Z,32.00
2023-06-08T09:07:26.555Z,29.10
2023-06-08T09:10:16.457Z,33.43
2023-06-08T09:12:50.940Z,32.83
2023-06-08T09:15:33.567Z,38.50
2023-06-08T09:18:04.400Z,31.47
2023-06-08T09:20:33.459Z,32.97
2023-06-08T09:23:17.474Z,29.27
2023-06-08T09:25:44.748Z,33.43
2023-06-08T09:28:16.532Z,30.03
2023-06-08T09:30:50.717Z,29.20
2023-06-08T09:33:29.421Z,29.67
2023-06-08T09:35:59.547Z,27.03
2023-06-08T09:38:28.486Z,30.73
2023-06-08T09:41:15.838Z,37.27
2023-06-08T09:43:49.396Z,29.43
2023-06-08T09:46:35.691Z,24.87
2023-06-08T09:49:08.794Z,29.50
2023-06-08T09:51:38.873Z,27.10
2023-06-08T09:54:08.263Z,24.00
2023-06-08T09:56:41.078Z,33.40
2023-06-08T09:59:12.863Z,27.33
2023-06-08T10:16:28.911Z,21.57
2023-06-08T10:24:01.892Z,21.87
2023-06-08T10:27:20.456Z,22.73
2023-06-08T10:33:25.759Z,25.77
2023-06-08T10:36:25.381Z,19.10
2023-06-08T10:39:47.192Z,23.43
2023-06-08T10:55:52.456Z,21.70
2023-06-08T11:02:41.209Z,20.47
2023-06-08T11:16:28.771Z,21.17
2023-06-08T11:19:55.847Z,20.60
2023-06-08T11:22:44.745Z,23.00
2023-06-08T11:23:54.875Z,23.10
2023-06-08T11:26:07.560Z,23.40
2023-06-08T11:46:34.462Z,22.87
2023-06-08T11:49:51.345Z,20.13
2023-06-08T12:00:24.031Z,20.07
2023-06-08T12:04:09.953Z,20.13
2023-06-08T12:07:02.300Z,18.30
2023-06-08T12:12:49.245Z,19.70
2023-06-08T12:15:18.691Z,21.97
2023-06-08T12:17:50.098Z,21.83
2023-06-08T12:20:52.823Z,26.50
2023-06-08T12:23:41.655Z,20.53
2023-06-08T12:27:49.716Z,23.33
2023-06-08T12:31:12.225Z,27.57
2023-06-08T12:34:22.567Z,28.63
2023-06-08T12:36:59.782Z,28.50
2023-06-08T12:39:59.534Z,24.17
2023-06-08T12:43:34.360Z,27.37
2023-06-08T12:46:54.789Z,24.30
2023-06-08T12:49:45.478Z,26.40
2023-06-08T12:52:23.867Z,23.40
2023-06-08T12:56:09.240Z,23.63
2023-06-08T12:58:57.664Z,22.00
2023-06-08T13:01:36.639Z,25.83
2023-06-08T13:04:05.339Z,21.87
2023-06-08T13:06:35.232Z,23.73
2023-06-08T13:09:08.805Z,18.43
2023-06-08T13:14:34.423Z,18.87
2023-06-08T13:17:05.185Z,21.13
2023-06-08T13:19:32.991Z,19.00
2023-06-08T13:22:01.705Z,20.50
2023-06-08T13:24:33.535Z,17.10
2023-06-08T13:27:02.221Z,21.00
2023-06-08T13:29:33.465Z,18.90
2023-06-08T13:32:01.765Z,17.90
2023-06-08T13:34:29.199Z,17.40
2023-06-08T13:36:57.521Z,18.67
2023-06-08T13:39:24.394Z,17.00
2023-06-08T13:41:53.094Z,18.17
2023-06-08T13:44:21.017Z,19.43
2023-06-08T13:46:49.420Z,18.43
2023-06-08T13:49:17.775Z,17.80
2023-06-08T13:51:46.283Z,17.27
2023-06-08T13:54:13.128Z,17.07
2023-06-08T13:56:41.878Z,14.97
2023-06-08T13:59:09.207Z,15.43
2023-06-08T14:01:38.672Z,11.10
2023-06-08T14:04:08.279Z,16.03
2023-06-08T14:06:35.554Z,12.83
2023-06-08T14:09:04.241Z,16.73
2023-06-08T14:11:33.036Z,13.20
2023-06-08T14:14:01.392Z,13.50
2023-06-08T14:16:29.574Z,12.53
2023-06-08T14:18:57.077Z,13.03
2023-06-08T14:21:25.317Z,11.77
2023-06-08T14:23:54.997Z,10.50
2023-06-08T14:26:24.967Z,11.47
2023-06-08T14:28:52.785Z,10.93
2023-06-08T14:31:20.271Z,9.73
2023-06-08T14:33:48.422Z,10.30
2023-06-08T14:36:15.296Z,9.93
2023-06-08T14:38:42.442Z,8.13
2023-06-08T14:41:09.867Z,8.93
2023-06-08T14:43:36.862Z,8.20
2023-06-08T14:46:04.701Z,10.40
2023-06-08T14:48:32.742Z,9.17
2023-06-08T14:50:59.942Z,9.07
2023-06-08T14:53:27.113Z,7.63
2023-06-08T14:55:55.329Z,7.67
2023-06-08T14:58:25.464Z,8.27
2023-06-08T15:00:53.391Z,8.13
2023-06-08T15:03:20.482Z,7.43
2023-06-08T15:05:48.190Z,7.47
2023-06-08T15:08:18.739Z,10.50
2023-06-08T15:10:45.864Z,8.80
2023-06-08T15:13:14.012Z,8.20
2023-06-08T15:15:41.715Z,12.23
2023-06-08T15:18:12.390Z,8.47
2023-06-08T15:20:39.379Z,11.07
2023-06-08T15:23:07.239Z,10.73
2023-06-08T15:25:34.029Z,9.50
2023-06-08T15:28:02.162Z,8.90
2023-06-08T15:30:29.818Z,13.30
2023-06-08T15:32:57.062Z,10.10
2023-06-08T15:35:25.129Z,11.93
2023-06-08T15:37:53.461Z,10.83
2023-06-08T15:40:22.047Z,9.93
2023-06-08T15:42:50.223Z,11.47
2023-06-08T15:45:17.663Z,13.00
2023-06-08T15:47:46.484Z,10.80
2023-06-08T15:50:16.482Z,12.53
2023-06-08T15:52:43.678Z,12.03
2023-06-08T15:55:11.419Z,10.30
2023-06-08T15:57:39.436Z,12.63
2023-06-08T16:00:09.046Z,11.43
2023-06-08T16:02:39.629Z,8.90
2023-06-08T16:05:11.476Z,10.23
2023-06-08T16:07:39.372Z,9.80
2023-06-08T16:10:07.663Z,10.40
2023-06-08T16:12:35.569Z,10.43
2023-06-08T16:15:05.375Z,9.00
2023-06-08T16:17:32.962Z,9.50
2023-06-08T16:20:00.283Z,9.63
2023-06-08T16:22:29.856Z,9.93
2023-06-08T16:24:58.034Z,13.77
2023-06-08T16:27:25.314Z,10.47
2023-06-08T16:29:54.003Z,10.07
2023-06-08T16:32:22.141Z,12.10
2023-06-08T16:34:49.676Z,9.10
2023-06-08T16:37:17.350Z,11.53
2023-06-08T16:39:46.083Z,11.70
2023-06-08T16:42:14.992Z,9.97
2023-06-08T16:44:44.704Z,11.30
2023-06-08T16:47:13.167Z,11.30
2023-06-08T16:49:45.026Z,11.60
2023-06-08T16:52:18.968Z,10.67
2023-06-08T16:54:46.685Z,14.60
2023-06-08T16:57:15.094Z,10.07
2023-06-08T16:59:43.472Z,13.60
2023-06-08T17:03:26.579Z,11.07
2023-06-08T17:06:32.694Z,11.90
2023-06-08T17:12:22.736Z,10.87
2023-06-08T17:21:27.377Z,10.97
2023-06-08T17:24:14.975Z,14.80
2023-06-08T17:29:52.164Z,15.00
2023-06-08T17:32:37.354Z,16.67
2023-06-08T17:35:37.573Z,13.77
2023-06-08T17:38:23.054Z,15.60
2023-06-08T17:41:01.613Z,16.87
2023-06-08T17:43:59.903Z,11.90
2023-06-08T17:46:34.499Z,21.10
2023-06-08T17:49:16.285Z,15.97
2023-06-08T17:52:04.901Z,11.93
2023-06-08T17:55:02.267Z,12.40
2023-06-08T17:58:09.186Z,13.43
2023-06-08T18:00:41.985Z,10.93
2023-06-08T18:03:34.416Z,15.10
2023-06-08T18:06:25.455Z,14.90
2023-06-08T18:09:30.073Z,13.03
2023-06-08T18:12:22.286Z,12.53
2023-06-08T18:14:52.206Z,11.60
2023-06-08T18:17:31.225Z,12.90
2023-06-08T18:20:19.494Z,10.80
2023-06-08T18:22:58.100Z,12.17
2023-06-08T18:26:08.975Z,13.90
2023-06-08T18:31:37.815Z,11.57
2023-06-08T18:34:34.044Z,12.23
2023-06-08T18:37:08.044Z,14.77
2023-06-08T18:39:58.207Z,13.60
2023-06-08T18:42:51.254Z,13.07
2023-06-08T18:45:45.362Z,10.90
2023-06-08T18:48:16.745Z,13.07
2023-06-08T18:50:44.246Z,12.17
2023-06-08T18:53:14.425Z,11.90
2023-06-08T18:56:11.673Z,14.33
2023-06-08T19:04:13.239Z,12.47
2023-06-08T19:06:58.124Z,11.80
2023-06-08T19:27:02.055Z,13.53
2023-06-08T19:33:57.245Z,17.10
2023-06-08T20:55:40.720Z,11.97
2023-06-08T20:58:08.951Z,16.53
2023-06-08T21:00:37.271Z,13.23
2023-06-08T21:03:06.267Z,15.20
2023-06-08T21:05:39.160Z,12.10
2023-06-08T21:08:08.383Z,13.90
2023-06-08T21:10:37.486Z,13.90
2023-06-08T21:13:06.259Z,14.50
2023-06-08T21:15:34.878Z,11.90
2023-06-08T21:18:04.453Z,15.93
2023-06-08T21:20:33.404Z,14.27
2023-06-08T21:23:01.699Z,13.90
2023-06-08T21:25:30.653Z,14.23
2023-06-08T21:27:58.722Z,11.27
2023-06-08T21:30:27.304Z,14.70
2023-06-08T21:32:55.723Z,15.43
2023-06-08T21:35:24.188Z,15.90
2023-06-08T21:37:52.997Z,16.00
2023-06-08T21:43:23.017Z,13.67
2023-06-08T21:46:37.203Z,12.60
2023-06-08T21:49:08.355Z,12.87
2023-06-08T21:51:35.752Z,15.00
2023-06-08T21:54:02.756Z,13.70
2023-06-08T21:56:30.509Z,17.70
2023-06-08T21:58:57.876Z,15.07
2023-06-08T22:01:27.323Z,18.27
2023-06-08T22:03:57.428Z,14.30
2023-06-08T22:06:25.179Z,13.57
2023-06-08T22:08:53.017Z,16.77
2023-06-08T22:11:21.591Z,17.37
2023-06-08T22:13:52.689Z,16.73
2023-06-08T22:16:21.715Z,19.60
2023-06-08T22:18:49.343Z,15.57
2023-06-08T22:21:18.605Z,15.03
2023-06-08T22:23:46.189Z,15.50
2023-06-08T22:26:31.149Z,21.70
2023-06-08T22:29:13.765Z,21.57
2023-06-08T22:35:03.173Z,16.33
2023-06-08T22:40:23.500Z,16.30
2023-06-08T22:43:13.846Z,25.30
2023-06-08T22:45:40.644Z,18.30
2023-06-08T22:51:05.448Z,14.23
2023-06-08T22:56:44.840Z,16.40
2023-06-08T22:59:13.118Z,20.03
2023-06-08T23:05:15.239Z,18.70
2023-06-08T23:07:47.307Z,17.50
2023-06-08T23:10:40.274Z,16.77
2023-06-08T23:13:16.230Z,18.80
2023-06-08T23:15:43.025Z,15.67
2023-06-08T23:18:09.890Z,13.80
2023-06-08T23:20:42.392Z,14.63
2023-06-08T23:23:10.726Z,15.63
2023-06-08T23:25:40.367Z,15.80
2023-06-08T23:28:13.699Z,21.10
2023-06-08T23:31:02.215Z,15.93
2023-06-08T23:33:44.821Z,15.87
2023-06-08T23:36:32.113Z,17.10
2023-06-08T23:41:58.028Z,14.70
2023-06-08T23:44:50.896Z,20.33
2023-06-08T23:47:34.716Z,15.80
2023-06-08T23:50:04.979Z,18.77
2023-06-08T23:55:01.832Z,18.67
2023-06-08T23:59:38.046Z,18.40
